sensor_id;sensor_type;location;lat;lon;timestamp;pressure;altitude;pressure_sealevel;temperature;humidity
78299;BME280;67556;55.656;12.590;2023-07-30T00:00:40;100432.38;;;17.09;84.21
78299;BME280;67556;55.656;12.590;2023-07-30T00:03:25;100429.69;;;17.09;83.86
78299;BME280;67556;55.656;12.590;2023-07-30T00:05:53;100430.59;;;17.09;84.15
78299;BME280;67556;55.656;12.590;2023-07-30T00:08:44;100436.88;;;17.07;83.92
78299;BME280;67556;55.656;12.590;2023-07-30T00:11:11;100437.78;;;17.07;83.39
78299;BME280;67556;55.656;12.590;2023-07-30T00:13:57;100440.47;;;17.07;83.41
78299;BME280;67556;55.656;12.590;2023-07-30T00:16:25;100444.91;;;16.98;83.54
78299;BME280;67556;55.656;12.590;2023-07-30T00:19:10;100445.75;;;16.89;83.54
78299;BME280;67556;55.656;12.590;2023-07-30T00:21:37;100447.56;;;16.93;83.46
78299;BME280;67556;55.656;12.590;2023-07-30T00:24:21;100449.34;;;16.82;83.11
78299;BME280;67556;55.656;12.590;2023-07-30T00:26:48;100446.66;;;16.82;83.07
78299;BME280;67556;55.656;12.590;2023-07-30T00:29:30;100440.34;;;16.77;83.65
78299;BME280;67556;55.656;12.590;2023-07-30T00:32:09;100442.16;;;16.84;83.20
78299;BME280;67556;55.656;12.590;2023-07-30T00:34:55;100447.50;;;16.75;83.42
78299;BME280;67556;55.656;12.590;2023-07-30T00:37:21;100448.31;;;16.63;83.26
78299;BME280;67556;55.656;12.590;2023-07-30T00:40:07;100451.00;;;16.61;83.39
78299;BME280;67556;55.656;12.590;2023-07-30T00:42:52;100454.59;;;16.60;83.31
78299;BME280;67556;55.656;12.590;2023-07-30T00:45:20;100451.84;;;16.50;83.45
78299;BME280;67556;55.656;12.590;2023-07-30T00:48:05;100467.94;;;16.46;83.82
78299;BME280;67556;55.656;12.590;2023-07-30T00:50:32;100457.22;;;16.48;83.97
78299;BME280;67556;55.656;12.590;2023-07-30T00:53:11;100459.88;;;16.43;83.51
78299;BME280;67556;55.656;12.590;2023-07-30T00:55:47;100464.28;;;16.34;84.34
78299;BME280;67556;55.656;12.590;2023-07-30T00:58:23;100467.00;;;16.37;84.13
78299;BME280;67556;55.656;12.590;2023-07-30T01:01:10;100472.34;;;16.34;84.19
78299;BME280;67556;55.656;12.590;2023-07-30T01:03:44;100473.25;;;16.33;84.41
78299;BME280;67556;55.656;12.590;2023-07-30T01:06:29;100470.59;;;16.36;84.29
78299;BME280;67556;55.656;12.590;2023-07-30T01:09:21;100470.56;;;16.39;84.60
78299;BME280;67556;55.656;12.590;2023-07-30T01:11:47;100466.97;;;16.31;84.59
78299;BME280;67556;55.656;12.590;2023-07-30T01:14:33;100470.47;;;16.19;85.24
78299;BME280;67556;55.656;12.590;2023-07-30T01:17:04;100470.44;;;16.14;85.70
78299;BME280;67556;55.656;12.590;2023-07-30T01:19:37;100474.94;;;16.21;85.80
78299;BME280;67556;55.656;12.590;2023-07-30T01:22:05;100477.66;;;16.26;85.48
78299;BME280;67556;55.656;12.590;2023-07-30T01:24:50;100481.25;;;16.24;85.67
78299;BME280;67556;55.656;12.590;2023-07-30T01:27:27;100474.94;;;16.21;86.45
78299;BME280;67556;55.656;12.590;2023-07-30T01:30:24;100480.28;;;16.17;87.04
78299;BME280;67556;55.656;12.590;2023-07-30T01:32:53;100479.38;;;16.10;87.27
78299;BME280;67556;55.656;12.590;2023-07-30T01:35:28;100475.81;;;16.14;87.57
78299;BME280;67556;55.656;12.590;2023-07-30T01:38:15;100468.63;;;16.10;87.66
78299;BME280;67556;55.656;12.590;2023-07-30T01:40:42;100470.41;;;16.10;87.60
78299;BME280;67556;55.656;12.590;2023-07-30T01:43:16;100469.47;;;16.08;87.70
78299;BME280;67556;55.656;12.590;2023-07-30T01:46:01;100479.28;;;16.01;88.13
78299;BME280;67556;55.656;12.590;2023-07-30T01:48:28;100477.53;;;16.06;87.88
78299;BME280;67556;55.656;12.590;2023-07-30T01:51:13;100479.25;;;15.96;87.88
78299;BME280;67556;55.656;12.590;2023-07-30T01:53:41;100480.97;;;15.88;88.01
78299;BME280;67556;55.656;12.590;2023-07-30T01:56:26;100475.63;;;15.90;88.19
78299;BME280;67556;55.656;12.590;2023-07-30T01:58:52;100482.75;;;15.88;87.73
78299;BME280;67556;55.656;12.590;2023-07-30T02:01:25;100491.69;;;15.88;88.05
78299;BME280;67556;55.656;12.590;2023-07-30T02:04:10;100493.41;;;15.79;88.03
78299;BME280;67556;55.656;12.590;2023-07-30T02:06:37;100492.47;;;15.72;88.13
78299;BME280;67556;55.656;12.590;2023-07-30T02:09:30;100489.81;;;15.74;88.17
78299;BME280;67556;55.656;12.590;2023-07-30T02:11:56;100487.06;;;15.67;88.10
78299;BME280;67556;55.656;12.590;2023-07-30T02:14:41;100483.38;;;15.59;88.29
78299;BME280;67556;55.656;12.590;2023-07-30T02:17:08;100495.13;;;15.67;88.39
78299;BME280;67556;55.656;12.590;2023-07-30T02:19:53;100495.13;;;15.70;87.66
78299;BME280;67556;55.656;12.590;2023-07-30T02:22:19;100498.75;;;15.73;87.34
78299;BME280;67556;55.656;12.590;2023-07-30T02:25:06;100506.63;;;15.59;87.74
78299;BME280;67556;55.656;12.590;2023-07-30T02:27:33;100503.94;;;15.57;87.90
78299;BME280;67556;55.656;12.590;2023-07-30T02:30:13;100502.25;;;15.65;87.83
78299;BME280;67556;55.656;12.590;2023-07-30T02:32:59;100499.38;;;15.50;88.50
78299;BME280;67556;55.656;12.590;2023-07-30T02:35:26;100499.25;;;15.38;89.52
78299;BME280;67556;55.656;12.590;2023-07-30T02:38:39;100502.00;;;15.44;89.26
78299;BME280;67556;55.656;12.590;2023-07-30T02:41:27;100498.44;;;15.43;89.37
78299;BME280;67556;55.656;12.590;2023-07-30T02:44:12;100499.25;;;15.38;89.48
78299;BME280;67556;55.656;12.590;2023-07-30T02:46:38;100511.81;;;15.39;89.39
78299;BME280;67556;55.656;12.590;2023-07-30T02:49:24;100495.69;;;15.42;89.00
78299;BME280;67556;55.656;12.590;2023-07-30T02:51:50;100502.91;;;15.43;88.70
78299;BME280;67556;55.656;12.590;2023-07-30T02:54:23;100518.06;;;15.41;89.07
78299;BME280;67556;55.656;12.590;2023-07-30T02:57:03;100515.38;;;15.39;89.08
78299;BME280;67556;55.656;12.590;2023-07-30T02:59:49;100522.44;;;15.31;89.22
78299;BME280;67556;55.656;12.590;2023-07-30T03:02:15;100523.34;;;15.32;89.33
78299;BME280;67556;55.656;12.590;2023-07-30T03:04:48;100527.72;;;15.25;89.70
78299;BME280;67556;55.656;12.590;2023-07-30T03:07:33;100524.28;;;15.37;89.24
78299;BME280;67556;55.656;12.590;2023-07-30T03:10:25;100515.34;;;15.35;89.08
78299;BME280;67556;55.656;12.590;2023-07-30T03:12:52;100525.06;;;15.27;89.33
78299;BME280;67556;55.656;12.590;2023-07-30T03:15:38;100525.91;;;15.22;89.51
78299;BME280;67556;55.656;12.590;2023-07-30T03:18:04;100528.50;;;15.16;89.83
78299;BME280;67556;55.656;12.590;2023-07-30T03:20:42;100534.72;;;15.12;90.10
78299;BME280;67556;55.656;12.590;2023-07-30T03:23:28;100524.03;;;15.15;89.91
78299;BME280;67556;55.656;12.590;2023-07-30T03:25:54;100526.75;;;15.18;89.69
78299;BME280;67556;55.656;12.590;2023-07-30T03:28:40;100525.06;;;15.27;89.71
78299;BME280;67556;55.656;12.590;2023-07-30T03:31:26;100526.88;;;15.29;89.59
78299;BME280;67556;55.656;12.590;2023-07-30T03:33:54;100526.88;;;15.29;89.45
78299;BME280;67556;55.656;12.590;2023-07-30T03:36:35;100532.19;;;15.23;89.87
78299;BME280;67556;55.656;12.590;2023-07-30T03:39:20;100525.00;;;15.20;90.31
78299;BME280;67556;55.656;12.590;2023-07-30T03:41:46;100524.97;;;15.17;90.17
78299;BME280;67556;55.656;12.590;2023-07-30T03:44:33;100530.41;;;15.23;89.83
78299;BME280;67556;55.656;12.590;2023-07-30T03:46:59;100527.75;;;15.27;90.20
78299;BME280;67556;55.656;12.590;2023-07-30T03:49:44;100529.69;;;15.38;89.71
78299;BME280;67556;55.656;12.590;2023-07-30T03:52:29;100532.34;;;15.37;89.10
78299;BME280;67556;55.656;12.590;2023-07-30T03:55:08;100540.44;;;15.38;89.01
78299;BME280;67556;55.656;12.590;2023-07-30T03:57:49;100542.97;;;15.29;89.88
78299;BME280;67556;55.656;12.590;2023-07-30T04:00:36;100546.69;;;15.42;89.60
78299;BME280;67556;55.656;12.590;2023-07-30T04:03:02;100544.91;;;15.41;89.37
78299;BME280;67556;55.656;12.590;2023-07-30T04:05:53;100543.16;;;15.44;88.91
78299;BME280;67556;55.656;12.590;2023-07-30T04:08:38;100545.78;;;15.38;89.52
78299;BME280;67556;55.656;12.590;2023-07-30T04:11:09;100556.47;;;15.35;89.50
78299;BME280;67556;55.656;12.590;2023-07-30T04:13:38;100554.69;;;15.36;89.80
78299;BME280;67556;55.656;12.590;2023-07-30T04:16:07;100556.53;;;15.41;89.35
78299;BME280;67556;55.656;12.590;2023-07-30T04:18:33;100565.44;;;15.37;89.91
78299;BME280;67556;55.656;12.590;2023-07-30T04:21:18;100564.63;;;15.46;89.15
78299;BME280;67556;55.656;12.590;2023-07-30T04:23:55;100573.63;;;15.48;89.14
78299;BME280;67556;55.656;12.590;2023-07-30T04:26:40;100564.63;;;15.46;89.44
78299;BME280;67556;55.656;12.590;2023-07-30T04:29:06;100579.00;;;15.48;89.46
78299;BME280;67556;55.656;12.590;2023-07-30T04:31:53;100581.72;;;15.54;89.21
78299;BME280;67556;55.656;12.590;2023-07-30T04:34:19;100578.31;;;15.66;88.61
78299;BME280;67556;55.656;12.590;2023-07-30T04:37:01;100577.34;;;15.59;88.96
78299;BME280;67556;55.656;12.590;2023-07-30T04:39:46;100581.72;;;15.54;88.94
78299;BME280;67556;55.656;12.590;2023-07-30T04:42:30;100576.38;;;15.54;88.79
78299;BME280;67556;55.656;12.590;2023-07-30T04:45:15;100574.75;;;15.67;89.05
78299;BME280;67556;55.656;12.590;2023-07-30T04:47:44;100584.72;;;15.79;88.46
78299;BME280;67556;55.656;12.590;2023-07-30T04:50:13;100576.72;;;15.82;88.42
78299;BME280;67556;55.656;12.590;2023-07-30T04:52:51;100572.25;;;15.84;87.79
78299;BME280;67556;55.656;12.590;2023-07-30T04:55:36;100575.81;;;15.83;88.10
78299;BME280;67556;55.656;12.590;2023-07-30T04:58:02;100584.81;;;15.85;87.60
78299;BME280;67556;55.656;12.590;2023-07-30T05:00:31;100583.03;;;15.87;87.68
78299;BME280;67556;55.656;12.590;2023-07-30T05:03:17;100586.63;;;15.89;87.44
78299;BME280;67556;55.656;12.590;2023-07-30T05:05:44;100592.06;;;15.95;87.89
78299;BME280;67556;55.656;12.590;2023-07-30T05:08:35;100594.94;;;16.15;86.83
78299;BME280;67556;55.656;12.590;2023-07-30T05:11:08;100597.59;;;16.12;86.31
78299;BME280;67556;55.656;12.590;2023-07-30T05:13:44;100576.97;;;16.09;85.93
78299;BME280;67556;55.656;12.590;2023-07-30T05:16:29;100574.34;;;16.15;85.29
78299;BME280;67556;55.656;12.590;2023-07-30T05:18:56;100589.59;;;16.19;85.45
78299;BME280;67556;55.656;12.590;2023-07-30T05:21:41;100571.59;;;16.08;85.50
78299;BME280;67556;55.656;12.590;2023-07-30T05:24:26;100577.84;;;16.08;85.61
78299;BME280;67556;55.656;12.590;2023-07-30T05:27:11;100576.09;;;16.13;85.93
78299;BME280;67556;55.656;12.590;2023-07-30T05:29:53;100577.06;;;16.18;85.29
78299;BME280;67556;55.656;12.590;2023-07-30T05:32:35;100571.69;;;16.18;85.57
78299;BME280;67556;55.656;12.590;2023-07-30T05:35:14;100570.91;;;16.32;85.68
78299;BME280;67556;55.656;12.590;2023-07-30T05:37:42;100565.50;;;16.29;85.16
78299;BME280;67556;55.656;12.590;2023-07-30T05:40:11;100570.94;;;16.36;84.81
78299;BME280;67556;55.656;12.590;2023-07-30T05:42:54;100569.19;;;16.40;84.79
78299;BME280;67556;55.656;12.590;2023-07-30T05:45:27;100572.81;;;16.48;84.71
78299;BME280;67556;55.656;12.590;2023-07-30T05:48:12;100576.38;;;16.45;83.90
78299;BME280;67556;55.656;12.590;2023-07-30T05:50:40;100574.56;;;16.43;84.14
78299;BME280;67556;55.656;12.590;2023-07-30T05:53:07;100584.50;;;16.53;83.18
78299;BME280;67556;55.656;12.590;2023-07-30T05:55:39;100578.19;;;16.51;83.46
78299;BME280;67556;55.656;12.590;2023-07-30T05:58:24;100573.78;;;16.59;83.24
78299;BME280;67556;55.656;12.590;2023-07-30T06:00:51;100574.69;;;16.61;82.27
78299;BME280;67556;55.656;12.590;2023-07-30T06:03:36;100581.88;;;16.61;82.36
78299;BME280;67556;55.656;12.590;2023-07-30T06:06:23;100575.47;;;16.46;82.87
78299;BME280;67556;55.656;12.590;2023-07-30T06:08:53;100586.22;;;16.46;83.08
78299;BME280;67556;55.656;12.590;2023-07-30T06:11:20;100580.00;;;16.49;82.82
78299;BME280;67556;55.656;12.590;2023-07-30T06:14:03;100579.13;;;16.55;82.68
78299;BME280;67556;55.656;12.590;2023-07-30T06:16:48;100577.41;;;16.66;82.35
78299;BME280;67556;55.656;12.590;2023-07-30T06:19:15;100569.47;;;16.78;82.26
78299;BME280;67556;55.656;12.590;2023-07-30T06:21:45;100572.22;;;16.87;82.06
78299;BME280;67556;55.656;12.590;2023-07-30T06:24:30;100573.13;;;16.92;81.64
78299;BME280;67556;55.656;12.590;2023-07-30T06:26:57;100581.25;;;17.02;80.70
78299;BME280;67556;55.656;12.590;2023-07-30T06:29:25;100578.56;;;17.05;80.53
78299;BME280;67556;55.656;12.590;2023-07-30T06:31:51;100587.56;;;17.07;80.16
78299;BME280;67556;55.656;12.590;2023-07-30T06:34:36;100588.44;;;17.04;79.83
78299;BME280;67556;55.656;12.590;2023-07-30T06:37:22;100590.13;;;16.88;79.51
78299;BME280;67556;55.656;12.590;2023-07-30T06:39:49;100583.84;;;16.85;79.19
78299;BME280;67556;55.656;12.590;2023-07-30T06:42:34;100592.88;;;16.96;78.98
78299;BME280;67556;55.656;12.590;2023-07-30T06:45:01;100588.44;;;17.04;78.92
78299;BME280;67556;55.656;12.590;2023-07-30T06:47:27;100593.00;;;17.17;78.62
78299;BME280;67556;55.656;12.590;2023-07-30T06:50:03;100585.84;;;17.23;77.44
78299;BME280;67556;55.656;12.590;2023-07-30T06:52:34;100586.81;;;17.37;77.05
78299;BME280;67556;55.656;12.590;2023-07-30T06:55:16;100594.88;;;17.37;77.13
78299;BME280;67556;55.656;12.590;2023-07-30T06:57:48;100597.59;;;17.41;76.10
78299;BME280;67556;55.656;12.590;2023-07-30T07:00:20;100586.88;;;17.55;74.89
78299;BME280;67556;55.656;12.590;2023-07-30T07:03:06;100593.13;;;17.51;74.87
78299;BME280;67556;55.656;12.590;2023-07-30T07:05:44;100589.56;;;17.49;74.77
78299;BME280;67556;55.656;12.590;2023-07-30T07:08:13;100595.00;;;17.70;74.83
78299;BME280;67556;55.656;12.590;2023-07-30T07:10:46;100600.38;;;17.74;75.04
78299;BME280;67556;55.656;12.590;2023-07-30T07:13:19;100601.25;;;17.62;74.49
78299;BME280;67556;55.656;12.590;2023-07-30T07:15:49;100603.97;;;17.66;73.90
78299;BME280;67556;55.656;12.590;2023-07-30T07:18:34;100606.63;;;17.65;73.70
78299;BME280;67556;55.656;12.590;2023-07-30T07:21:19;100609.41;;;17.77;73.02
78299;BME280;67556;55.656;12.590;2023-07-30T07:23:49;100599.53;;;17.78;72.34
78299;BME280;67556;55.656;12.590;2023-07-30T07:26:27;100601.34;;;17.94;72.28
78299;BME280;67556;55.656;12.590;2023-07-30T07:29:13;100603.19;;;17.95;71.54
78299;BME280;67556;55.656;12.590;2023-07-30T07:31:59;100604.91;;;17.82;71.31
78299;BME280;67556;55.656;12.590;2023-07-30T07:34:27;100603.16;;;17.90;71.13
78299;BME280;67556;55.656;12.590;2023-07-30T07:37:01;100610.34;;;17.91;71.40
78299;BME280;67556;55.656;12.590;2023-07-30T07:39:29;100614.84;;;17.99;71.70
78299;BME280;67556;55.656;12.590;2023-07-30T07:41:56;100606.75;;;18.02;71.23
78299;BME280;67556;55.656;12.590;2023-07-30T07:44:36;100612.16;;;18.02;71.11
78299;BME280;67556;55.656;12.590;2023-07-30T07:47:21;100610.38;;;18.11;70.35
78299;BME280;67556;55.656;12.590;2023-07-30T07:49:47;100607.69;;;18.17;69.93
78299;BME280;67556;55.656;12.590;2023-07-30T07:52:26;100602.28;;;18.28;69.55
78299;BME280;67556;55.656;12.590;2023-07-30T07:55:00;100600.50;;;18.21;69.83
78299;BME280;67556;55.656;12.590;2023-07-30T07:57:38;100596.91;;;18.24;68.07
78299;BME280;67556;55.656;12.590;2023-07-30T08:00:17;100597.81;;;18.33;67.90
78299;BME280;67556;55.656;12.590;2023-07-30T08:03:03;100610.38;;;18.31;67.43
78299;BME280;67556;55.656;12.590;2023-07-30T08:05:36;100601.41;;;18.40;67.73
78299;BME280;67556;55.656;12.590;2023-07-30T08:08:09;100594.19;;;18.50;68.02
78299;BME280;67556;55.656;12.590;2023-07-30T08:10:55;100595.09;;;18.65;68.11
78299;BME280;67556;55.656;12.590;2023-07-30T08:13:22;100612.19;;;18.70;67.31
78299;BME280;67556;55.656;12.590;2023-07-30T08:15:54;100601.38;;;18.61;67.45
78299;BME280;67556;55.656;12.590;2023-07-30T08:18:22;100596.00;;;18.70;67.28
78299;BME280;67556;55.656;12.590;2023-07-30T08:20:59;100600.50;;;18.78;66.91
78299;BME280;67556;55.656;12.590;2023-07-30T08:23:27;100587.91;;;18.60;66.08
78299;BME280;67556;55.656;12.590;2023-07-30T08:26:13;100586.13;;;18.80;66.20
78299;BME280;67556;55.656;12.590;2023-07-30T08:28:57;100590.59;;;18.87;67.38
78299;BME280;67556;55.656;12.590;2023-07-30T08:31:31;100585.19;;;18.87;67.35
78299;BME280;67556;55.656;12.590;2023-07-30T08:33:58;100583.38;;;18.97;65.99
78299;BME280;67556;55.656;12.590;2023-07-30T08:36:39;100588.75;;;19.00;65.80
78299;BME280;67556;55.656;12.590;2023-07-30T08:39:24;100585.16;;;19.10;65.59
78299;BME280;67556;55.656;12.590;2023-07-30T08:41:53;100586.03;;;19.15;64.67
78299;BME280;67556;55.656;12.590;2023-07-30T08:44:38;100582.44;;;19.15;65.39
78299;BME280;67556;55.656;12.590;2023-07-30T08:47:05;100578.75;;;19.30;65.08
78299;BME280;67556;55.656;12.590;2023-07-30T08:49:32;100579.66;;;19.33;64.93
78299;BME280;67556;55.656;12.590;2023-07-30T08:52:02;100584.06;;;19.54;63.62
78299;BME280;67556;55.656;12.590;2023-07-30T08:54:46;100583.25;;;19.38;63.61
78299;BME280;67556;55.656;12.590;2023-07-30T08:57:31;100576.84;;;19.55;62.39
78299;BME280;67556;55.656;12.590;2023-07-30T09:00:19;100585.84;;;19.61;62.54
78299;BME280;67556;55.656;12.590;2023-07-30T09:02:48;100580.47;;;19.51;62.51
78299;BME280;67556;55.656;12.590;2023-07-30T09:05:34;100577.81;;;19.43;63.31
78299;BME280;67556;55.656;12.590;2023-07-30T09:08:09;100573.22;;;19.63;63.04
78299;BME280;67556;55.656;12.590;2023-07-30T09:10:42;100574.94;;;19.81;62.82
78299;BME280;67556;55.656;12.590;2023-07-30T09:13:36;100574.91;;;19.84;61.92
78299;BME280;67556;55.656;12.590;2023-07-30T09:16:08;100561.41;;;19.83;61.91
78299;BME280;67556;55.656;12.590;2023-07-30T09:18:40;100577.56;;;19.93;61.04
78299;BME280;67556;55.656;12.590;2023-07-30T09:21:29;100574.91;;;19.89;60.17
78299;BME280;67556;55.656;12.590;2023-07-30T09:24:03;100569.44;;;19.95;59.54
78299;BME280;67556;55.656;12.590;2023-07-30T09:26:42;100571.34;;;19.81;58.76
78299;BME280;67556;55.656;12.590;2023-07-30T09:29:24;100574.00;;;19.87;58.36
78299;BME280;67556;55.656;12.590;2023-07-30T09:31:53;100579.41;;;19.85;59.88
78299;BME280;67556;55.656;12.590;2023-07-30T09:34:29;100567.66;;;19.88;59.84
78299;BME280;67556;55.656;12.590;2023-07-30T09:37:03;100579.41;;;19.87;60.75
78299;BME280;67556;55.656;12.590;2023-07-30T09:39:48;100582.03;;;19.98;60.18
78299;BME280;67556;55.656;12.590;2023-07-30T09:42:34;100585.59;;;20.03;60.03
78299;BME280;67556;55.656;12.590;2023-07-30T09:45:22;100583.81;;;20.03;60.49
78299;BME280;67556;55.656;12.590;2023-07-30T09:47:51;100579.31;;;19.99;58.81
78299;BME280;67556;55.656;12.590;2023-07-30T09:50:24;100582.88;;;20.07;58.62
78299;BME280;67556;55.656;12.590;2023-07-30T09:52:58;100590.06;;;20.05;58.20
78299;BME280;67556;55.656;12.590;2023-07-30T09:55:30;100591.81;;;20.14;59.06
78299;BME280;67556;55.656;12.590;2023-07-30T09:58:05;100604.53;;;20.00;59.90
78299;BME280;67556;55.656;12.590;2023-07-30T10:00:37;100591.06;;;19.98;60.59
78299;BME280;67556;55.656;12.590;2023-07-30T10:03:07;100587.34;;;20.08;60.32
78299;BME280;67556;55.656;12.590;2023-07-30T10:05:37;100591.00;;;20.04;59.77
78299;BME280;67556;55.656;12.590;2023-07-30T10:08:15;100594.66;;;19.99;58.55
78299;BME280;67556;55.656;12.590;2023-07-30T10:10:49;100594.63;;;20.02;58.99
78299;BME280;67556;55.656;12.590;2023-07-30T10:13:40;100598.31;;;19.90;59.21
78299;BME280;67556;55.656;12.590;2023-07-30T10:16:11;100612.81;;;19.77;60.05
78299;BME280;67556;55.656;12.590;2023-07-30T10:18:46;100608.28;;;19.79;62.17
78299;BME280;67556;55.656;12.590;2023-07-30T10:21:27;100614.53;;;19.87;62.33
78299;BME280;67556;55.656;12.590;2023-07-30T10:24:15;100607.34;;;19.83;62.46
78299;BME280;67556;55.656;12.590;2023-07-30T10:26:41;100608.31;;;19.71;63.33
78299;BME280;67556;55.656;12.590;2023-07-30T10:29:22;100611.03;;;19.73;65.08
78299;BME280;67556;55.656;12.590;2023-07-30T10:32:08;100609.19;;;19.75;68.38
78299;BME280;67556;55.656;12.590;2023-07-30T10:34:44;100609.13;;;19.87;69.71
78299;BME280;67556;55.656;12.590;2023-07-30T10:37:10;100608.16;;;19.97;68.69
78299;BME280;67556;55.656;12.590;2023-07-30T10:39:37;100607.34;;;19.86;68.47
78299;BME280;67556;55.656;12.590;2023-07-30T10:42:06;100596.41;;;20.06;68.23
78299;BME280;67556;55.656;12.590;2023-07-30T10:44:49;100592.63;;;20.27;69.20
78299;BME280;67556;55.656;12.590;2023-07-30T10:47:16;100597.13;;;20.29;68.12
78299;BME280;67556;55.656;12.590;2023-07-30T10:49:43;100594.44;;;20.28;66.53
78299;BME280;67556;55.656;12.590;2023-07-30T10:52:12;100598.91;;;20.30;68.01
78299;BME280;67556;55.656;12.590;2023-07-30T10:54:38;100593.53;;;20.29;65.26
78299;BME280;67556;55.656;12.590;2023-07-30T10:57:05;100593.44;;;20.39;65.34
78299;BME280;67556;55.656;12.590;2023-07-30T10:59:34;100591.63;;;20.40;65.72
78299;BME280;67556;55.656;12.590;2023-07-30T11:02:03;100599.78;;;20.37;64.80
78299;BME280;67556;55.656;12.590;2023-07-30T11:04:34;100605.41;;;20.06;58.84
78299;BME280;67556;55.656;12.590;2023-07-30T11:07:01;100614.66;;;19.62;59.93
78299;BME280;67556;55.656;12.590;2023-07-30T11:09:28;100618.41;;;19.18;63.04
78299;BME280;67556;55.656;12.590;2023-07-30T11:11:55;100624.75;;;19.07;66.81
78299;BME280;67556;55.656;12.590;2023-07-30T11:14:28;100626.53;;;19.00;68.01
78299;BME280;67556;55.656;12.590;2023-07-30T11:16:57;100641.88;;;18.89;70.46
78299;BME280;67556;55.656;12.590;2023-07-30T11:19:25;100652.66;;;18.95;72.64
78299;BME280;67556;55.656;12.590;2023-07-30T11:21:55;100630.16;;;18.94;73.50
78299;BME280;67556;55.656;12.590;2023-07-30T11:24:33;100637.34;;;18.95;75.05
78299;BME280;67556;55.656;12.590;2023-07-30T11:27:02;100631.03;;;19.04;75.03
78299;BME280;67556;55.656;12.590;2023-07-30T11:29:28;100628.34;;;19.03;75.77
78299;BME280;67556;55.656;12.590;2023-07-30T11:31:57;100622.03;;;19.08;76.54
78299;BME280;67556;55.656;12.590;2023-07-30T11:34:27;100615.75;;;19.03;76.07
78299;BME280;67556;55.656;12.590;2023-07-30T11:36:56;100613.06;;;19.02;76.39
78299;BME280;67556;55.656;12.590;2023-07-30T11:39:29;100623.88;;;18.91;75.35
78299;BME280;67556;55.656;12.590;2023-07-30T11:41:56;100618.53;;;18.76;75.84
78299;BME280;67556;55.656;12.590;2023-07-30T11:44:30;100601.44;;;18.75;77.19
78299;BME280;67556;55.656;12.590;2023-07-30T11:46:58;100601.41;;;18.70;75.24
78299;BME280;67556;55.656;12.590;2023-07-30T11:49:24;100605.03;;;18.71;77.07
78299;BME280;67556;55.656;12.590;2023-07-30T11:52:05;100594.22;;;18.82;76.39
78299;BME280;67556;55.656;12.590;2023-07-30T11:54:31;100600.47;;;18.99;78.15
78299;BME280;67556;55.656;12.590;2023-07-30T11:56:58;100603.16;;;19.05;76.59
78299;BME280;67556;55.656;12.590;2023-07-30T11:59:24;100603.13;;;19.17;73.56
78299;BME280;67556;55.656;12.590;2023-07-30T12:01:57;100590.47;;;19.27;74.04
78299;BME280;67556;55.656;12.590;2023-07-30T12:04:23;100592.19;;;19.45;71.30
78299;BME280;67556;55.656;12.590;2023-07-30T12:07:09;100592.16;;;19.65;70.89
78299;BME280;67556;55.656;12.590;2023-07-30T12:09:38;100589.34;;;19.82;68.75
78299;BME280;67556;55.656;12.590;2023-07-30T12:12:12;100592.78;;;20.08;68.45
78299;BME280;67556;55.656;12.590;2023-07-30T12:14:44;100584.50;;;20.28;68.54
78299;BME280;67556;55.656;12.590;2023-07-30T12:17:11;100578.03;;;20.52;68.94
78299;BME280;67556;55.656;12.590;2023-07-30T12:19:51;100573.25;;;20.79;70.61
78299;BME280;67556;55.656;12.590;2023-07-30T12:22:24;100571.16;;;21.05;70.74
78299;BME280;67556;55.656;12.590;2023-07-30T12:24:50;100561.91;;;21.25;70.31
78299;BME280;67556;55.656;12.590;2023-07-30T12:27:18;100566.22;;;21.42;70.27
78299;BME280;67556;55.656;12.590;2023-07-30T12:29:46;100570.34;;;21.70;69.79
78299;BME280;67556;55.656;12.590;2023-07-30T12:32:19;100565.72;;;21.78;68.68
78299;BME280;67556;55.656;12.590;2023-07-30T12:34:59;100554.81;;;21.84;68.77
78299;BME280;67556;55.656;12.590;2023-07-30T12:37:29;100568.19;;;21.95;68.84
78299;BME280;67556;55.656;12.590;2023-07-30T12:40:16;100564.75;;;21.83;65.18
78299;BME280;67556;55.656;12.590;2023-07-30T12:43:02;100553.28;;;21.63;64.89
78299;BME280;67556;55.656;12.590;2023-07-30T12:45:29;100550.47;;;21.69;66.41
78299;BME280;67556;55.656;12.590;2023-07-30T12:48:15;100545.69;;;21.88;66.24
78299;BME280;67556;55.656;12.590;2023-07-30T12:50:43;100552.91;;;21.89;66.05
78299;BME280;67556;55.656;12.590;2023-07-30T12:53:29;100551.00;;;21.94;65.74
78299;BME280;67556;55.656;12.590;2023-07-30T12:55:56;100548.22;;;21.99;64.59
78299;BME280;67556;55.656;12.590;2023-07-30T12:58:41;100543.97;;;21.84;63.82
78299;BME280;67556;55.656;12.590;2023-07-30T13:01:14;100547.53;;;21.86;64.56
78299;BME280;67556;55.656;12.590;2023-07-30T13:03:59;100537.38;;;21.99;63.02
78299;BME280;67556;55.656;12.590;2023-07-30T13:06:45;100548.84;;;22.19;62.09
78299;BME280;67556;55.656;12.590;2023-07-30T13:09:14;100539.84;;;22.17;59.51
78299;BME280;67556;55.656;12.590;2023-07-30T13:11:47;100530.44;;;22.38;58.91
78299;BME280;67556;55.656;12.590;2023-07-30T13:14:32;100544.53;;;22.58;57.82
78299;BME280;67556;55.656;12.590;2023-07-30T13:17:05;100534.94;;;22.87;57.84
78299;BME280;67556;55.656;12.590;2023-07-30T13:19:36;100532.00;;;23.01;57.55
78299;BME280;67556;55.656;12.590;2023-07-30T13:22:21;100542.97;;;22.95;57.44
78299;BME280;67556;55.656;12.590;2023-07-30T13:24:49;100537.75;;;22.82;58.34